Time;durP1;ratioP1;P1;durP2;ratioP2;P2;SDS_P1;SDS_P2;PMS_P1;PMS_P2;Temp;Humidity;BMP_temperature;BMP_pressure;BME280_temperature;BME280_humidity;BME280_pressure;Samples;Min_cycle;Max_cycle;Signal;HPM_P1;HPM_P2
2022/01/12 00:01:15;;;;;;;;;10.50;10.50;;;;;-4.42;76.27;101940.38;6183847;23;8798;-76
2022/01/12 00:04:11;;;;;;;;;12.75;12.75;;;;;-4.42;76.36;101945.78;6184086;23;8859;-75
2022/01/12 00:07:07;;;;;;;;;9.50;9.50;;;;;-4.42;75.58;101936.84;6183746;23;8833;-76
2022/01/12 00:10:07;;;;;;;;;7.50;7.50;;;;;-4.41;75.53;101939.34;6184922;23;8798;-76
2022/01/12 00:13:02;;;;;;;;;15.50;15.50;;;;;-4.51;75.00;101946.97;6183887;23;8794;-76
2022/01/12 00:15:58;;;;;;;;;15.50;15.50;;;;;-4.66;75.37;101938.19;6183845;23;8821;-75
2022/01/12 00:18:53;;;;;;;;;12.25;12.25;;;;;-4.66;75.74;101944.41;6184100;23;8782;-75
2022/01/12 00:21:49;;;;;;;;;15.75;12.75;;;;;-4.81;75.78;101941.84;6183542;23;8809;-76
2022/01/12 00:34:17;;;;;;;;;9.00;9.00;;;;;-4.87;75.84;101953.44;6183889;23;8895;-75
2022/01/12 00:37:13;;;;;;;;;12.75;12.25;;;;;-4.90;75.27;101951.13;6183668;23;8786;-74
2022/01/12 00:40:09;;;;;;;;;8.50;8.50;;;;;-4.78;75.27;101944.13;6164725;23;8782;-76
2022/01/12 00:43:05;;;;;;;;;20.25;17.25;;;;;-4.71;75.01;101946.88;6185567;23;8789;-75
2022/01/12 00:46:00;;;;;;;;;9.25;9.25;;;;;-4.90;74.88;101943.03;6185411;23;8813;-76
2022/01/12 00:48:58;;;;;;;;;17.50;17.50;;;;;-4.82;75.13;101950.97;6185827;23;8892;-76
2022/01/12 00:51:54;;;;;;;;;10.50;10.00;;;;;-4.81;75.00;101952.63;6184732;23;8896;-75
2022/01/12 00:54:50;;;;;;;;;36.75;30.25;;;;;-5.08;75.01;101951.63;6185766;23;8793;-75
2022/01/12 00:57:45;;;;;;;;;14.00;12.50;;;;;-5.14;75.20;101951.56;6185521;23;8781;-76
2022/01/12 01:00:41;;;;;;;;;29.50;29.50;;;;;-5.01;75.82;101956.22;6185585;23;9588;-77
2022/01/12 01:03:37;;;;;;;;;30.50;29.00;;;;;-4.94;75.93;101957.09;6185557;23;8793;-75
2022/01/12 01:06:35;;;;;;;;;27.00;26.50;;;;;-4.88;75.46;101959.84;6185159;23;8797;-76
2022/01/12 01:09:33;;;;;;;;;31.25;25.00;;;;;-5.00;75.17;101960.59;6185589;23;8798;-76
2022/01/12 01:12:29;;;;;;;;;18.25;16.50;;;;;-4.96;76.03;101964.56;6185160;23;8801;-76
2022/01/12 01:15:52;;;;;;;;;12.50;12.50;;;;;-4.95;75.94;101964.38;6185372;23;8804;-75
2022/01/12 01:25:31;;;;;;;;;1.00;1.00;;;;;-4.79;75.50;101966.75;6155411;23;9581;-76
2022/01/12 01:28:26;;;;;;;;;10.75;10.75;;;;;-4.79;75.69;101960.53;6155648;23;9503;-75
2022/01/12 01:31:29;;;;;;;;;12.75;12.75;;;;;-5.03;76.31;101968.06;6155633;23;8821;-77
2022/01/12 01:34:27;;;;;;;;;14.75;14.75;;;;;-4.99;76.68;101963.09;6155185;23;8802;-75
2022/01/12 01:37:22;;;;;;;;;15.25;14.00;;;;;-4.84;76.77;101974.59;6155203;23;8809;-75
2022/01/12 01:40:18;;;;;;;;;19.50;17.50;;;;;-4.81;76.71;101974.22;6155320;23;8821;-74
2022/01/12 01:43:24;;;;;;;;;15.75;15.75;;;;;-4.78;75.89;101975.69;6153861;23;9543;-74
2022/01/12 01:53:33;;;;;;;;;19.00;18.25;;;;;-4.83;75.53;101980.84;6154712;23;9535;-74
2022/01/12 01:56:04;;;;;;;;;20.25;20.25;;;;;-4.82;74.91;101991.47;6155327;23;8805;-74
2022/01/12 01:59:00;;;;;;;;;20.75;20.75;;;;;-4.94;75.18;101987.63;6155173;23;8798;-74
2022/01/12 02:01:56;;;;;;;;;19.75;19.75;;;;;-5.01;75.98;101997.53;6156258;23;8806;-75
2022/01/12 02:04:51;;;;;;;;;12.50;12.50;;;;;-4.84;74.92;101996.19;6155066;23;8805;-74
2022/01/12 02:07:47;;;;;;;;;12.50;12.50;;;;;-4.87;75.18;101996.59;6155302;23;8907;-75
2022/01/12 02:10:42;;;;;;;;;18.75;18.75;;;;;-5.03;74.72;102000.44;6155984;23;8786;-75
2022/01/12 02:13:38;;;;;;;;;20.75;20.00;;;;;-5.00;74.99;101995.66;6154902;23;8842;-75
2022/01/12 02:16:49;;;;;;;;;15.25;13.00;;;;;-5.10;74.70;102002.25;6154099;23;8798;-74
2022/01/12 02:20:23;;;;;;;;;15.25;15.25;;;;;-5.01;74.40;102002.09;6155129;23;8813;-74
2022/01/12 02:36:27;;;;;;;;;8.50;8.50;;;;;-5.34;76.52;102010.75;6184720;23;8785;-76
2022/01/12 02:42:44;;;;;;;;;13.50;12.50;;;;;-5.18;76.19;102015.03;6184363;23;8790;-74
2022/01/12 02:55:13;;;;;;;;;15.25;15.25;;;;;-5.36;74.20;102018.22;6184573;23;8802;-75
2022/01/12 02:58:09;;;;;;;;;19.25;17.00;;;;;-5.27;74.03;102018.91;6184365;23;8821;-75
2022/01/12 03:04:11;;;;;;;;;8.50;8.50;;;;;-5.43;72.65;102022.69;6185071;23;8829;-75
2022/01/12 03:07:16;;;;;;;;;12.00;12.00;;;;;-5.34;73.44;102018.84;6182375;23;8891;-75
2022/01/12 03:10:13;;;;;;;;;10.00;9.00;;;;;-5.51;73.26;102020.13;6184568;23;9499;-75
2022/01/12 03:13:08;;;;;;;;;12.00;12.00;;;;;-5.52;73.22;102015.75;6184339;23;8805;-75
2022/01/12 03:16:17;;;;;;;;;11.00;8.00;;;;;-5.60;73.90;102022.09;6184201;23;8832;-75
2022/01/12 03:19:12;;;;;;;;;11.25;11.25;;;;;-5.52;74.14;102016.59;6184487;23;8797;-75
2022/01/12 03:22:08;;;;;;;;;10.50;10.50;;;;;-5.42;73.75;102016.28;6183854;23;8833;-75
2022/01/12 03:25:04;;;;;;;;;12.00;12.00;;;;;-5.35;73.59;102012.63;6184127;23;8794;-75
2022/01/12 03:28:03;;;;;;;;;12.50;12.25;;;;;-5.34;73.41;102021.53;6184306;23;9537;-75
2022/01/12 03:31:14;;;;;;;;;14.00;13.00;;;;;-5.40;74.44;102025.84;6184207;23;8786;-75
2022/01/12 03:34:22;;;;;;;;;9.75;9.75;;;;;-5.43;74.74;102026.22;6184382;23;8801;-74
2022/01/12 04:11:02;;;;;;;;;5.75;5.75;;;;;-5.75;74.87;102034.78;6183832;23;8896;-75
2022/01/12 04:13:57;;;;;;;;;8.50;6.75;;;;;-5.72;74.12;102040.66;6183539;23;8809;-74
2022/01/12 04:16:53;;;;;;;;;6.75;6.75;;;;;-5.75;73.57;102051.81;6186719;23;8790;-74
2022/01/12 04:19:48;;;;;;;;;7.00;7.00;;;;;-5.79;73.35;102045.13;6187141;23;8859;-74
2022/01/12 04:26:00;;;;;;;;;9.50;9.50;;;;;-5.48;71.93;102041.31;6186668;23;8829;-75
2022/01/12 04:28:56;;;;;;;;;5.25;5.25;;;;;-5.72;71.35;102054.13;6187316;23;8794;-74
2022/01/12 04:31:51;;;;;;;;;6.50;6.50;;;;;-5.75;71.69;102049.13;6187171;23;9534;-74
2022/01/12 04:34:47;;;;;;;;;12.75;10.50;;;;;-5.72;72.75;102050.59;6167410;23;8912;-75
2022/01/12 04:37:43;;;;;;;;;13.00;11.00;;;;;-5.78;73.02;102052.19;6149234;23;8794;-75
2022/01/12 04:40:38;;;;;;;;;6.25;6.25;;;;;-5.82;73.49;102060.84;6166973;23;8836;-74
2022/01/12 04:43:39;;;;;;;;;7.00;7.00;;;;;-5.85;73.23;102061.22;6187059;23;8785;-74
2022/01/12 04:46:50;;;;;;;;;6.00;6.00;;;;;-5.91;72.79;102069.03;6186776;23;8869;-74
2022/01/12 04:52:41;;;;;;;;;12.25;11.00;;;;;-5.76;71.11;102066.28;6187051;23;8906;-76
2022/01/12 04:55:38;;;;;;;;;9.50;8.00;;;;;-5.94;70.42;102057.81;6187035;23;8798;-76
2022/01/12 04:58:33;;;;;;;;;8.50;8.50;;;;;-6.07;69.96;102058.47;6186852;23;8794;-74
2022/01/12 05:01:35;;;;;;;;;4.00;4.00;;;;;-6.16;69.77;102065.84;6186372;23;8817;-73
2022/01/12 05:07:58;;;;;;;;;5.50;5.50;;;;;-6.30;69.22;102065.84;6186562;23;8809;-75
2022/01/12 05:14:13;;;;;;;;;11.50;11.50;;;;;-6.31;69.94;102064.16;6186413;23;9589;-75
2022/01/12 05:16:40;;;;;;;;;7.00;6.50;;;;;-6.08;70.65;102066.75;6160851;23;8829;-75
2022/01/12 05:19:36;;;;;;;;;10.00;7.00;;;;;-6.24;71.30;102071.31;6186568;23;8908;-75
2022/01/12 05:22:31;;;;;;;;;12.75;12.75;;;;;-6.23;71.67;102085.63;6186262;23;8782;-76
2022/01/12 05:25:28;;;;;;;;;7.50;7.25;;;;;-6.30;71.17;102082.81;6185403;23;9559;-75
2022/01/12 05:28:25;;;;;;;;;12.50;12.25;;;;;-6.29;72.47;102080.97;6184363;23;8801;-75
2022/01/12 05:31:20;;;;;;;;;18.50;17.25;;;;;-6.33;72.77;102079.69;6185060;23;8816;-76
2022/01/12 05:34:16;;;;;;;;;12.00;12.00;;;;;-6.19;72.42;102077.00;6184817;23;8805;-73
2022/01/12 05:37:12;;;;;;;;;19.00;16.00;;;;;-6.20;72.13;102077.19;6185168;23;8806;-74
2022/01/12 05:40:08;;;;;;;;;10.00;10.00;;;;;-6.22;72.35;102080.03;6185271;23;8794;-74
2022/01/12 05:43:04;;;;;;;;;15.50;15.50;;;;;-6.23;72.76;102088.31;6185237;23;8817;-74
2022/01/12 05:46:09;;;;;;;;;13.00;13.00;;;;;-6.41;72.72;102077.09;6184888;23;8816;-73
2022/01/12 05:52:19;;;;;;;;;0.50;0.50;;;;;-6.32;73.00;102084.03;6184628;23;8778;-73
2022/01/12 05:55:15;;;;;;;;;13.25;13.25;;;;;-6.36;72.61;102083.59;6185091;23;8797;-73
2022/01/12 05:58:11;;;;;;;;;24.25;22.50;;;;;-6.21;72.78;102083.56;6184916;23;8782;-73
2022/01/12 06:01:07;;;;;;;;;16.75;16.75;;;;;-6.40;73.15;102086.81;6185127;23;8882;-74
2022/01/12 06:04:02;;;;;;;;;15.25;15.25;;;;;-6.44;74.11;102078.28;6185186;23;8796;-73
2022/01/12 06:07:01;;;;;;;;;24.25;22.25;;;;;-6.50;74.51;102087.09;6184810;23;8830;-74
2022/01/12 06:09:57;;;;;;;;;20.50;20.50;;;;;-6.39;74.91;102086.63;6185477;23;8810;-74
2022/01/12 06:12:53;;;;;;;;;17.00;17.00;;;;;-6.28;74.75;102090.75;6184009;23;8875;-74
2022/01/12 06:15:49;;;;;;;;;17.75;15.75;;;;;-6.38;74.92;102087.47;6183863;23;8785;-75
2022/01/12 06:18:44;;;;;;;;;24.50;24.50;;;;;-6.14;75.22;102089.03;6184935;23;8824;-74
2022/01/12 06:21:40;;;;;;;;;12.50;12.50;;;;;-6.21;75.07;102091.66;6185194;23;8804;-74
2022/01/12 06:24:36;;;;;;;;;20.00;14.00;;;;;-6.22;75.09;102093.50;6185898;23;8793;-74
2022/01/12 06:27:33;;;;;;;;;15.25;15.25;;;;;-6.20;75.12;102106.81;6184668;23;8790;-74
2022/01/12 06:33:24;;;;;;;;;18.00;16.00;;;;;-6.16;74.13;102098.16;6184854;23;8884;-73
2022/01/12 06:36:22;;;;;;;;;21.00;16.00;;;;;-6.07;74.19;102109.66;6184550;23;8891;-74
2022/01/12 06:39:20;;;;;;;;;15.50;15.00;;;;;-5.73;72.80;102116.31;6184388;23;8857;-75
2022/01/12 06:42:16;;;;;;;;;14.50;13.75;;;;;-5.90;72.51;102129.16;6184320;23;8809;-74
2022/01/12 06:45:11;;;;;;;;;12.25;12.25;;;;;-5.98;72.45;102129.25;6184330;23;9412;-74
2022/01/12 06:48:07;;;;;;;;;14.75;13.75;;;;;-6.10;72.70;102134.28;6184552;23;8801;-74
2022/01/12 06:51:03;;;;;;;;;18.00;13.25;;;;;-5.80;72.94;102140.47;6185001;23;8801;-74
2022/01/12 06:53:59;;;;;;;;;16.25;15.75;;;;;-5.79;72.45;102144.84;6184281;23;8785;-74
2022/01/12 06:56:54;;;;;;;;;9.25;9.25;;;;;-5.88;72.01;102145.97;6183179;23;9503;-74
2022/01/12 06:59:50;;;;;;;;;18.00;18.00;;;;;-5.73;72.50;102136.00;6183216;23;8798;-74
2022/01/12 07:02:45;;;;;;;;;33.50;24.50;;;;;-5.64;72.43;102147.50;6185315;23;8871;-74
2022/01/12 07:05:41;;;;;;;;;21.50;20.00;;;;;-5.52;72.17;102156.81;6183835;23;9484;-74
2022/01/12 07:08:36;;;;;;;;;16.25;16.25;;;;;-5.85;71.67;102158.22;6184084;23;8798;-73
2022/01/12 07:11:32;;;;;;;;;10.50;10.50;;;;;-5.89;71.57;102155.06;6183951;23;8794;-74
2022/01/12 07:14:28;;;;;;;;;14.50;14.50;;;;;-5.77;72.20;102163.50;6164655;23;9515;-74
2022/01/12 07:17:23;;;;;;;;;15.00;15.00;;;;;-5.61;72.15;102155.22;6182555;23;8793;-73
2022/01/12 07:20:19;;;;;;;;;9.25;9.25;;;;;-5.39;71.58;102154.25;6183922;23;8808;-72
2022/01/12 07:23:14;;;;;;;;;11.00;11.00;;;;;-5.09;70.96;102148.75;6186012;23;8820;-73
2022/01/12 07:26:10;;;;;;;;;19.00;19.00;;;;;-5.03;70.13;102148.00;6182492;23;8818;-69
2022/01/12 07:29:06;;;;;;;;;11.00;10.50;;;;;-5.12;70.24;102139.19;6185014;23;8798;-68
2022/01/12 07:32:01;;;;;;;;;22.00;21.50;;;;;-5.39;70.71;102148.84;6184767;23;8879;-69
2022/01/12 07:34:57;;;;;;;;;17.00;14.50;;;;;-5.53;70.78;102149.72;6184914;23;8904;-68
2022/01/12 07:37:53;;;;;;;;;18.00;17.75;;;;;-5.35;71.03;102144.75;6184894;23;8786;-68
2022/01/12 07:40:49;;;;;;;;;10.75;10.25;;;;;-5.38;69.77;102138.91;6184506;23;8813;-69
2022/01/12 07:43:44;;;;;;;;;12.50;12.50;;;;;-5.22;69.45;102137.81;6184829;23;8884;-69
2022/01/12 07:46:40;;;;;;;;;15.25;14.50;;;;;-5.42;69.20;102145.72;6184649;23;8809;-68
2022/01/12 07:49:36;;;;;;;;;15.50;14.00;;;;;-5.49;68.80;102140.22;6201150;23;8863;-69
2022/01/12 07:52:32;;;;;;;;;21.50;21.00;;;;;-5.45;67.86;102148.75;6184441;23;8802;-70
2022/01/12 07:55:28;;;;;;;;;8.00;8.00;;;;;-5.65;67.44;102151.22;6184403;23;8818;-69
2022/01/12 07:58:23;;;;;;;;;10.25;10.25;;;;;-5.75;67.55;102150.66;6184621;23;8794;-69
2022/01/12 08:01:19;;;;;;;;;15.00;15.00;;;;;-5.74;66.64;102153.19;6184333;23;8786;-68
2022/01/12 08:04:14;;;;;;;;;12.00;12.00;;;;;-5.84;67.69;102143.72;6184835;23;8802;-69
2022/01/12 08:07:11;;;;;;;;;15.50;15.50;;;;;-5.68;68.31;102133.56;6184354;23;8997;-69
2022/01/12 08:10:08;;;;;;;;;18.25;16.50;;;;;-5.17;67.72;102136.22;6184765;23;8806;-69
2022/01/12 08:12:37;;;;;;;;;21.75;21.75;;;;;-5.08;66.83;102136.94;6192813;23;8824;-69
2022/01/12 08:15:33;;;;;;;;;20.00;18.75;;;;;-4.61;66.53;102143.59;6183814;23;9523;-69
2022/01/12 08:18:29;;;;;;;;;21.75;21.75;;;;;-4.35;66.96;102130.31;6200961;23;8790;-67
2022/01/12 08:21:27;;;;;;;;;20.00;20.00;;;;;-4.63;67.26;102134.88;6182345;23;8802;-67
2022/01/12 08:24:22;;;;;;;;;22.75;18.50;;;;;-4.63;67.64;102132.16;6184338;23;9503;-68
2022/01/12 08:27:18;;;;;;;;;42.50;39.75;;;;;-4.56;67.50;102135.75;6183351;23;9528;-68
2022/01/12 08:30:17;;;;;;;;;19.00;19.00;;;;;-4.92;67.03;102136.69;6183301;23;8778;-68
2022/01/12 08:33:13;;;;;;;;;17.75;17.75;;;;;-4.99;67.25;102130.38;6182430;23;8888;-68
2022/01/12 08:36:08;;;;;;;;;15.25;15.00;;;;;-5.13;67.28;102131.31;6182519;23;8960;-68
2022/01/12 08:39:08;;;;;;;;;15.75;14.00;;;;;-5.20;68.67;102128.53;6183431;23;8785;-68
2022/01/12 08:42:03;;;;;;;;;17.00;14.50;;;;;-5.31;67.28;102137.09;6183270;23;8789;-67
2022/01/12 08:45:00;;;;;;;;;28.75;28.25;;;;;-5.07;66.64;102139.44;6183303;23;8801;-68
2022/01/12 08:47:56;;;;;;;;;29.75;23.50;;;;;-5.00;64.68;102144.06;6183378;23;8880;-69
2022/01/12 08:50:23;;;;;;;;;14.50;12.00;;;;;-4.99;62.98;102145.75;6193713;23;8781;-69
2022/01/12 08:53:20;;;;;;;;;7.50;7.50;;;;;-5.08;61.22;102135.06;6183183;23;8887;-69
2022/01/12 08:55:47;;;;;;;;;16.75;13.00;;;;;-4.90;61.30;102137.34;6192794;23;8765;-69
2022/01/12 08:58:15;;;;;;;;;18.50;17.00;;;;;-4.42;60.60;102140.22;6193548;23;8816;-68
2022/01/12 09:01:11;;;;;;;;;18.75;17.25;;;;;-4.26;60.05;102137.22;6183844;23;8885;-68
2022/01/12 09:04:06;;;;;;;;;13.75;13.50;;;;;-4.16;59.12;102133.34;6185181;23;8806;-68
2022/01/12 09:07:02;;;;;;;;;13.00;11.33;;;;;-4.68;60.14;102116.53;6184939;23;8797;-68
2022/01/12 09:09:44;;;;;;;;;5.50;5.50;;;;;-4.93;60.11;102135.00;6184948;23;8786;-68
2022/01/12 09:12:40;;;;;;;;;7.00;7.00;;;;;-4.59;60.34;102130.75;6186452;23;8789;-69
2022/01/12 09:15:36;;;;;;;;;10.75;10.75;;;;;-4.16;59.09;102133.34;6184865;23;8782;-68
2022/01/12 09:18:33;;;;;;;;;6.00;6.00;;;;;-4.09;59.11;102126.94;6185026;23;8814;-68
2022/01/12 09:21:29;;;;;;;;;10.00;10.00;;;;;-3.90;57.96;102121.88;6184710;23;8840;-68
2022/01/12 09:24:24;;;;;;;;;18.00;18.00;;;;;-3.56;57.82;102116.38;6184546;23;8805;-68
2022/01/12 09:27:20;;;;;;;;;15.00;15.00;;;;;-3.90;58.64;102114.59;6184878;23;8820;-68
2022/01/12 09:30:18;;;;;;;;;15.33;15.33;;;;;-3.75;58.00;102100.94;6185335;23;8888;-68
2022/01/12 09:33:14;;;;;;;;;8.33;8.33;;;;;-3.48;57.29;102102.69;6184661;23;8804;-68
2022/01/12 09:36:09;;;;;;;;;10.67;10.67;;;;;-3.61;57.37;102094.50;6184740;23;8926;-68
2022/01/12 09:39:06;;;;;;;;;20.33;18.33;;;;;-3.38;56.88;102097.69;6185119;23;8769;-68
2022/01/12 09:42:03;;;;;;;;;10.00;10.00;;;;;-3.17;55.95;102101.31;6184459;23;8782;-68
2022/01/12 09:45:01;;;;;;;;;0.00;0.00;;;;;-3.88;57.22;102090.06;6184840;23;8790;-68
2022/01/12 09:47:56;;;;;;;;;7.33;7.33;;;;;-4.06;57.85;102102.25;6184887;23;9480;-68
2022/01/12 09:50:53;;;;;;;;;11.33;10.00;;;;;-3.30;56.76;102099.38;6184899;23;8867;-69
2022/01/12 09:53:49;;;;;;;;;10.00;10.00;;;;;-3.52;56.73;102098.72;6184769;23;8809;-69
2022/01/12 09:56:45;;;;;;;;;16.00;13.67;;;;;-3.38;56.13;102092.28;6184906;23;8824;-69
2022/01/12 09:59:41;;;;;;;;;10.00;7.67;;;;;-3.20;56.10;102099.00;6184578;23;8896;-69
2022/01/12 10:02:39;;;;;;;;;9.00;9.00;;;;;-3.55;56.77;102091.00;6184712;23;9475;-68
2022/01/12 10:05:35;;;;;;;;;13.00;12.67;;;;;-3.70;57.75;102093.88;6184827;23;8902;-68
2022/01/12 10:08:35;;;;;;;;;33.00;32.67;;;;;-3.65;57.23;102096.81;6184826;23;8802;-68
2022/01/12 10:11:31;;;;;;;;;21.33;15.33;;;;;-3.45;58.49;102101.44;6185235;23;8790;-69
2022/01/12 10:14:50;;;;;;;;;13.00;13.00;;;;;-3.57;57.09;102098.50;6184516;23;8782;-69
2022/01/12 10:17:46;;;;;;;;;4.00;4.00;;;;;-3.96;57.51;102100.00;6184948;23;8794;-68
2022/01/12 10:20:44;;;;;;;;;9.67;9.67;;;;;-4.25;57.92;102094.84;6184838;23;8805;-69
2022/01/12 10:23:40;;;;;;;;;16.67;16.67;;;;;-3.97;58.41;102081.28;6184278;23;8797;-69
2022/01/12 10:26:39;;;;;;;;;21.67;20.33;;;;;-3.97;58.87;102078.56;6184092;23;8809;-69
2022/01/12 10:29:35;;;;;;;;;19.33;18.00;;;;;-3.97;58.09;102076.72;6184290;23;8877;-68
2022/01/12 10:32:30;;;;;;;;;15.67;15.67;;;;;-3.82;59.05;102081.97;6184707;23;8797;-69
2022/01/12 10:35:27;;;;;;;;;10.00;10.00;;;;;-4.13;58.80;102077.03;6184650;23;8797;-69
2022/01/12 10:38:22;;;;;;;;;21.33;21.00;;;;;-4.18;59.93;102084.91;6184546;23;8798;-69
2022/01/12 10:41:18;;;;;;;;;36.25;27.00;;;;;-3.99;60.36;102073.38;6184711;23;8928;-69
2022/01/12 10:44:26;;;;;;;;;38.25;34.75;;;;;-4.02;59.30;102070.22;6185013;23;8793;-68
2022/01/12 10:47:24;;;;;;;;;23.50;18.75;;;;;-3.58;58.73;102074.38;6184289;23;9593;-69
2022/01/12 10:50:26;;;;;;;;;48.50;42.75;;;;;-3.99;59.98;102072.53;6184423;23;8790;-69
2022/01/12 10:53:40;;;;;;;;;29.00;27.75;;;;;-3.94;59.71;102076.28;6184122;23;8824;-67
2022/01/12 10:56:36;;;;;;;;;17.67;17.67;;;;;-4.10;59.81;102079.34;6182605;23;8790;-67
2022/01/12 10:59:31;;;;;;;;;17.33;17.33;;;;;-4.23;59.40;102073.84;6184345;23;8844;-67
2022/01/12 11:02:28;;;;;;;;;9.33;8.33;;;;;-4.43;58.58;102071.03;6184129;23;8790;-67
2022/01/12 11:05:26;;;;;;;;;20.25;12.75;;;;;-4.34;58.69;102066.31;6184249;23;8863;-68
2022/01/12 11:08:26;;;;;;;;;24.25;24.25;;;;;-4.18;59.66;102070.56;6184218;23;8812;-66
2022/01/12 11:11:21;;;;;;;;;13.67;13.67;;;;;-4.56;59.43;102063.69;6184204;23;8824;-67
2022/01/12 11:14:17;;;;;;;;;24.00;23.00;;;;;-4.43;59.67;102072.91;6184017;23;8794;-67
2022/01/12 11:17:13;;;;;;;;;33.50;33.50;;;;;-4.32;60.88;102062.38;6165627;23;8880;-67
2022/01/12 11:20:30;;;;;;;;;20.00;18.50;;;;;-4.55;61.81;102064.50;6184071;23;8875;-67
2022/01/12 11:23:46;;;;;;;;;16.25;13.25;;;;;-4.53;60.89;102067.84;6184025;23;8904;-68
2022/01/12 11:26:54;;;;;;;;;3.00;2.50;;;;;-4.69;60.96;102068.16;6183601;23;8805;-67
2022/01/12 11:29:50;;;;;;;;;13.00;13.00;;;;;-4.79;61.43;102076.59;6184051;23;9589;-68
2022/01/12 11:32:59;;;;;;;;;23.25;22.25;;;;;-4.51;61.75;102077.44;6183912;23;8904;-67
2022/01/12 11:35:55;;;;;;;;;27.25;25.00;;;;;-4.61;62.03;102082.31;6183134;23;8816;-68
2022/01/12 11:39:00;;;;;;;;;9.25;9.25;;;;;-5.05;63.33;102083.44;6183567;23;8935;-67
2022/01/12 11:41:58;;;;;;;;;19.25;19.25;;;;;-4.95;63.99;102090.38;6183900;23;8905;-68
2022/01/12 11:44:57;;;;;;;;;21.50;21.50;;;;;-4.78;63.94;102087.19;6183262;23;8813;-66
2022/01/12 11:47:53;;;;;;;;;18.75;17.00;;;;;-4.77;63.98;102094.25;6183728;23;8821;-67
2022/01/12 11:50:52;;;;;;;;;25.50;24.00;;;;;-4.98;64.28;102102.41;6184032;23;8820;-67
2022/01/12 11:53:55;;;;;;;;;24.00;23.00;;;;;-5.17;64.75;102100.31;6183230;23;8837;-67
2022/01/12 11:57:00;;;;;;;;;30.50;30.50;;;;;-4.86;65.05;102092.72;6183143;23;8782;-67
2022/01/12 12:00:04;;;;;;;;;29.00;28.25;;;;;-4.90;65.49;102101.44;6183764;23;8909;-67
2022/01/12 12:03:01;;;;;;;;;26.50;26.50;;;;;-5.07;66.64;102103.53;6183533;23;8802;-66
2022/01/12 12:06:01;;;;;;;;;33.00;32.75;;;;;-5.00;67.43;102099.03;6182839;23;8925;-67
2022/01/12 12:09:22;;;;;;;;;27.50;24.75;;;;;-5.06;67.73;102097.97;6184154;23;8797;-67
2022/01/12 12:12:10;;;;;;;;;33.00;30.50;;;;;-5.19;68.58;102097.00;6193819;23;8875;-67
2022/01/12 12:14:53;;;;;;;;;31.25;27.75;;;;;-4.92;68.59;102101.59;6162215;23;8824;-67
2022/01/12 12:17:51;;;;;;;;;20.00;18.50;;;;;-4.84;67.00;102090.66;6183637;23;8887;-67
2022/01/12 12:20:47;;;;;;;;;24.75;23.75;;;;;-4.68;65.81;102104.91;6183733;23;8808;-68
2022/01/12 12:23:43;;;;;;;;;23.75;22.50;;;;;-5.01;65.75;102085.75;6183178;23;8793;-67
2022/01/12 12:26:52;;;;;;;;;33.50;32.75;;;;;-4.86;66.04;102092.72;6182520;23;8841;-67
2022/01/12 12:29:34;;;;;;;;;25.75;24.50;;;;;-5.22;66.07;102102.75;6189888;23;8928;-68
2022/01/12 12:32:37;;;;;;;;;24.75;24.75;;;;;-5.22;65.63;102100.88;6183469;23;8805;-68
2022/01/12 12:35:33;;;;;;;;;27.50;25.50;;;;;-5.33;63.64;102107.63;6163507;23;8825;-67
2022/01/12 12:38:29;;;;;;;;;36.00;36.00;;;;;-5.13;63.64;102107.84;6185677;23;8840;-67
2022/01/12 12:41:35;;;;;;;;;33.50;32.50;;;;;-5.06;63.79;102110.59;6185806;23;8896;-68
2022/01/12 12:44:33;;;;;;;;;22.50;22.50;;;;;-5.25;63.71;102105.84;6185456;23;8812;-67
2022/01/12 12:47:28;;;;;;;;;32.25;31.75;;;;;-5.14;62.99;102113.41;6185195;23;9511;-67
2022/01/12 12:50:29;;;;;;;;;25.00;24.75;;;;;-5.00;63.66;102106.28;6185300;23;8817;-67
2022/01/12 12:53:29;;;;;;;;;30.75;27.75;;;;;-5.03;63.95;102108.34;6184966;23;8789;-69
2022/01/12 12:56:28;;;;;;;;;20.75;16.50;;;;;-5.05;63.86;102115.81;6185111;23;8805;-67
2022/01/12 12:59:23;;;;;;;;;32.00;29.25;;;;;-5.04;64.74;102116.66;6185155;23;9472;-66
2022/01/12 13:02:20;;;;;;;;;30.25;30.00;;;;;-5.14;64.46;102121.50;6185431;23;8888;-66
2022/01/12 13:05:26;;;;;;;;;26.00;25.25;;;;;-5.10;64.62;102130.91;6185374;23;8794;-67
2022/01/12 13:08:22;;;;;;;;;48.25;35.50;;;;;-5.38;64.79;102128.09;6185296;23;8828;-66
2022/01/12 13:11:17;;;;;;;;;27.50;27.50;;;;;-5.25;64.92;102122.03;6185273;23;8778;-66
2022/01/12 13:14:16;;;;;;;;;18.75;18.50;;;;;-5.48;63.98;102128.41;6185099;23;8801;-66
2022/01/12 13:17:13;;;;;;;;;23.25;23.00;;;;;-5.49;63.21;102132.16;6184711;23;8782;-66
2022/01/12 13:23:21;;;;;;;;;22.50;21.75;;;;;-5.45;64.24;102128.03;6185046;23;8790;-66
2022/01/12 13:26:24;;;;;;;;;27.00;26.00;;;;;-5.46;64.28;102137.16;6185029;23;8824;-67
2022/01/12 13:29:20;;;;;;;;;35.50;28.00;;;;;-5.46;65.79;102131.75;6184576;23;8817;-66
2022/01/12 13:32:16;;;;;;;;;26.00;26.00;;;;;-5.71;65.90;102135.81;6184914;23;8824;-66
2022/01/12 13:35:12;;;;;;;;;19.00;18.00;;;;;-5.70;66.31;102137.47;6184829;23;8810;-66
2022/01/12 13:38:08;;;;;;;;;29.00;28.75;;;;;-5.66;66.91;102136.09;6185037;23;8812;-66
2022/01/12 13:41:13;;;;;;;;;28.50;28.50;;;;;-5.69;67.50;102141.84;6184553;23;8887;-67
2022/01/12 13:44:15;;;;;;;;;32.50;27.75;;;;;-5.42;67.37;102143.00;6184349;23;8844;-67
2022/01/12 13:47:25;;;;;;;;;39.75;39.75;;;;;-5.37;67.75;102141.44;6184553;23;8793;-67
2022/01/12 13:50:31;;;;;;;;;24.25;23.50;;;;;-5.55;67.77;102137.47;6184918;23;8789;-68
2022/01/12 13:53:36;;;;;;;;;26.00;22.00;;;;;-5.65;68.37;102141.28;6184895;23;8790;-67
2022/01/12 13:56:43;;;;;;;;;21.00;21.00;;;;;-5.76;66.75;102149.84;6184560;23;8794;-66
2022/01/12 13:59:50;;;;;;;;;15.00;15.00;;;;;-6.01;67.42;102143.09;6184930;23;8960;-67
2022/01/12 14:02:46;;;;;;;;;21.25;20.75;;;;;-6.20;68.55;102147.19;6184796;23;8812;-68
2022/01/12 14:05:42;;;;;;;;;17.00;16.50;;;;;-6.23;68.97;102143.00;6184529;23;8785;-66
2022/01/12 14:08:51;;;;;;;;;25.00;24.00;;;;;-6.02;69.46;102153.06;6184879;23;8793;-67
2022/01/12 14:11:48;;;;;;;;;33.50;33.25;;;;;-6.09;69.86;102156.66;6184508;23;9476;-67
2022/01/12 14:15:00;;;;;;;;;31.00;30.75;;;;;-5.93;68.82;102162.72;6184522;23;8785;-67
2022/01/12 14:17:58;;;;;;;;;38.50;35.00;;;;;-5.84;68.73;102162.56;6184607;23;8790;-67
2022/01/12 14:20:54;;;;;;;;;53.75;47.00;;;;;-5.87;68.71;102177.28;6184360;23;8847;-67
2022/01/12 14:23:49;;;;;;;;;31.25;29.75;;;;;-6.10;68.63;102184.63;6184247;23;8806;-67
2022/01/12 14:26:45;;;;;;;;;16.75;15.75;;;;;-6.10;68.29;102171.16;6184363;23;8915;-67
2022/01/12 14:29:40;;;;;;;;;4.00;3.00;;;;;-5.90;68.34;102170.41;6184510;23;8816;-67
2022/01/12 14:32:37;;;;;;;;;45.00;44.50;;;;;-5.81;68.32;102181.91;6184527;23;8871;-67
2022/01/12 14:35:33;;;;;;;;;70.50;55.75;;;;;-5.81;68.08;102181.09;6184323;23;8782;-68
2022/01/12 14:38:28;;;;;;;;;29.50;25.50;;;;;-6.14;67.19;102186.84;6182044;23;8829;-67
2022/01/12 14:41:25;;;;;;;;;34.50;29.75;;;;;-6.12;66.76;102186.69;6184475;23;8840;-70
2022/01/12 14:44:24;;;;;;;;;33.25;31.75;;;;;-6.24;67.77;102191.66;6184021;23;8920;-70
2022/01/12 14:47:20;;;;;;;;;36.00;30.50;;;;;-6.23;68.21;102188.78;6183523;23;8880;-71
2022/01/12 14:50:15;;;;;;;;;31.50;31.50;;;;;-6.36;67.00;102187.72;6184007;23;8912;-71
2022/01/12 14:53:12;;;;;;;;;30.50;29.50;;;;;-6.22;67.77;102186.94;6183491;23;8798;-71
2022/01/12 14:56:07;;;;;;;;;28.25;27.25;;;;;-6.30;67.06;102185.16;6184134;23;9533;-72
2022/01/12 14:59:03;;;;;;;;;29.00;26.50;;;;;-6.46;67.26;102194.22;6184019;23;8774;-71
2022/01/12 15:01:59;;;;;;;;;35.00;32.25;;;;;-6.41;67.48;102185.59;6183936;23;8836;-71
2022/01/12 15:04:54;;;;;;;;;48.25;33.25;;;;;-6.36;67.91;102191.28;6183915;23;8801;-72
2022/01/12 15:07:51;;;;;;;;;40.00;38.25;;;;;-6.38;67.63;102185.22;6183928;23;8821;-72
2022/01/12 15:10:47;;;;;;;;;43.50;39.00;;;;;-6.38;67.17;102192.47;6183852;23;8782;-73
2022/01/12 15:14:20;;;;;;;;;46.00;36.25;;;;;-6.43;67.90;102193.03;6183757;23;8824;-73
2022/01/12 15:17:01;;;;;;;;;36.00;30.75;;;;;-6.20;66.91;102193.00;6183851;23;8828;-72
2022/01/12 15:19:57;;;;;;;;;18.00;16.00;;;;;-6.47;67.06;102187.16;6183226;23;8802;-73
2022/01/12 15:22:53;;;;;;;;;34.00;19.50;;;;;-6.67;67.49;102188.69;6183611;23;9460;-74
2022/01/12 15:25:49;;;;;;;;;13.00;13.00;;;;;-6.73;68.04;102190.25;6164241;23;8821;-71